createdAt,value
2019-06-01T00:01:54.370Z,3.90
2019-06-01T00:03:56.969Z,4.10
2019-06-01T00:08:00.823Z,4.15
2019-06-01T00:10:04.626Z,3.90
2019-06-01T00:12:06.881Z,3.95
2019-06-01T00:14:09.167Z,4.22
2019-06-01T00:16:11.518Z,4.28
2019-06-01T00:18:13.532Z,4.22
2019-06-01T00:20:16.879Z,3.80
2019-06-01T00:22:19.320Z,4.00
2019-06-01T00:26:23.168Z,4.30
2019-06-01T00:28:25.632Z,4.20
2019-06-01T00:30:28.069Z,3.80
2019-06-01T00:34:32.313Z,4.17
2019-06-01T00:36:34.388Z,3.72
2019-06-01T00:38:36.573Z,3.95
2019-06-01T00:40:38.854Z,4.20
2019-06-01T00:42:41.946Z,4.00
2019-06-01T00:44:44.341Z,3.87
2019-06-01T00:46:46.747Z,3.95
2019-06-01T00:48:49.989Z,3.80
2019-06-01T00:50:53.219Z,3.98
2019-06-01T00:52:55.690Z,3.90
2019-06-01T00:54:57.684Z,3.60
2019-06-01T00:56:59.696Z,3.47
2019-06-01T00:59:01.985Z,3.60
2019-06-01T01:01:03.992Z,4.08
2019-06-01T01:03:06.086Z,4.12
2019-06-01T01:05:13.579Z,3.62
2019-06-01T01:07:15.595Z,3.58
2019-06-01T01:09:19.411Z,3.47
2019-06-01T01:11:22.144Z,3.72
2019-06-01T01:13:25.601Z,4.45
2019-06-01T01:15:27.643Z,4.08
2019-06-01T01:17:31.103Z,4.20
2019-06-01T01:19:33.123Z,3.70
2019-06-01T01:21:35.192Z,4.00
2019-06-01T01:23:37.518Z,4.20
2019-06-01T01:25:39.537Z,4.20
2019-06-01T01:27:41.560Z,4.60
2019-06-01T01:29:43.668Z,4.83
2019-06-01T01:31:47.013Z,3.98
2019-06-01T01:33:49.621Z,5.15
2019-06-01T01:37:56.587Z,4.10
2019-06-01T01:39:59.821Z,4.75
2019-06-01T01:42:02.189Z,4.47
2019-06-01T01:44:04.306Z,4.42
2019-06-01T01:48:08.775Z,4.70
2019-06-01T01:50:11.284Z,4.30
2019-06-01T01:54:15.276Z,4.60
2019-06-01T01:56:17.316Z,4.47
2019-06-01T01:58:19.396Z,5.10
2019-06-01T02:00:43.782Z,4.65
2019-06-01T02:02:45.796Z,4.85
2019-06-01T02:04:48.052Z,5.28
2019-06-01T02:06:50.279Z,5.03
2019-06-01T02:08:53.481Z,5.08
2019-06-01T02:10:57.381Z,5.12
2019-06-01T02:13:00.071Z,4.70
2019-06-01T02:17:04.735Z,4.65
2019-06-01T02:19:06.965Z,4.70
2019-06-01T02:21:09.029Z,4.62
2019-06-01T02:23:11.356Z,5.15
2019-06-01T02:25:13.862Z,5.25
2019-06-01T02:29:17.818Z,4.87
2019-06-01T02:31:37.491Z,4.90
2019-06-01T02:33:24.159Z,5.40
2019-06-01T02:35:26.389Z,4.30
2019-06-01T02:37:28.878Z,5.10
2019-06-01T02:41:32.528Z,4.87
2019-06-01T02:43:34.980Z,4.92
2019-06-01T02:45:37.878Z,5.20
2019-06-01T02:47:40.358Z,5.62
2019-06-01T02:51:44.538Z,5.27
2019-06-01T02:53:46.840Z,6.03
2019-06-01T02:55:49.283Z,5.33
2019-06-01T02:59:53.517Z,5.87
2019-06-01T03:02:00.233Z,5.85
2019-06-01T03:04:03.347Z,5.53
2019-06-01T03:06:07.664Z,6.08
2019-06-01T03:08:11.023Z,6.08
2019-06-01T03:10:13.227Z,5.90
2019-06-01T03:12:18.290Z,5.62
2019-06-01T03:14:23.594Z,5.42
2019-06-01T03:16:30.450Z,5.60
2019-06-01T03:18:35.977Z,5.55
2019-06-01T03:20:39.906Z,5.72
2019-06-01T03:22:42.059Z,6.37
2019-06-01T03:24:47.169Z,5.92
2019-06-01T03:26:51.144Z,5.35
2019-06-01T03:28:53.638Z,5.55
2019-06-01T03:32:57.742Z,5.25
2019-06-01T03:35:00.546Z,5.03
2019-06-01T03:37:02.999Z,5.22
2019-06-01T03:39:06.148Z,5.35
2019-06-01T03:41:08.300Z,5.03
2019-06-01T03:43:12.716Z,4.62
2019-06-01T03:45:15.028Z,5.35
2019-06-01T03:47:17.070Z,5.05
2019-06-01T03:49:19.207Z,4.62
2019-06-01T03:51:21.417Z,4.35
2019-06-01T03:53:23.575Z,4.62
2019-06-01T03:55:25.616Z,4.20
2019-06-01T03:57:28.113Z,3.95
2019-06-01T04:01:32.212Z,4.10
2019-06-01T04:03:34.504Z,3.87
2019-06-01T04:05:36.514Z,4.03
2019-06-01T04:07:39.157Z,3.90
2019-06-01T04:09:41.419Z,3.30
2019-06-01T04:11:44.513Z,3.58
2019-06-01T04:13:46.994Z,3.25
2019-06-01T04:15:49.234Z,3.20
2019-06-01T04:17:51.331Z,3.87
2019-06-01T04:19:54.069Z,3.58
2019-06-01T04:21:56.645Z,3.45
2019-06-01T04:26:00.374Z,3.60
2019-06-01T04:28:04.464Z,3.55
2019-06-01T04:30:07.237Z,3.27
2019-06-01T04:32:10.751Z,3.85
2019-06-01T04:34:13.207Z,4.30
2019-06-01T04:36:15.261Z,3.47
2019-06-01T04:38:17.316Z,3.65
2019-06-01T04:40:19.620Z,3.85
2019-06-01T04:42:21.666Z,3.72
2019-06-01T04:44:25.398Z,4.28
2019-06-01T04:46:27.736Z,4.00
2019-06-01T04:48:29.771Z,4.05
2019-06-01T04:50:32.263Z,4.17
2019-06-01T04:52:34.946Z,3.83
2019-06-01T04:54:37.397Z,4.37
2019-06-01T04:56:40.421Z,4.22
2019-06-01T04:58:43.077Z,3.72
2019-06-01T05:00:45.090Z,4.12
2019-06-01T05:02:47.102Z,3.30
2019-06-01T05:04:49.417Z,3.50
2019-06-01T05:06:51.681Z,3.65
2019-06-01T05:08:53.716Z,3.47
2019-06-01T05:10:56.365Z,3.72
2019-06-01T05:12:58.923Z,3.72
2019-06-01T05:15:01.291Z,3.35
2019-06-01T05:17:05.767Z,3.25
2019-06-01T05:19:08.237Z,3.58
2019-06-01T05:21:10.582Z,3.42
2019-06-01T05:25:15.372Z,3.08
2019-06-01T05:27:17.569Z,2.92
2019-06-01T05:29:19.956Z,3.02
2019-06-01T05:31:25.232Z,2.90
2019-06-01T05:33:36.877Z,3.10
2019-06-01T05:35:30.889Z,3.00
2019-06-01T05:39:34.809Z,2.92
2019-06-01T05:41:37.085Z,2.80
2019-06-01T05:43:39.276Z,2.90
2019-06-01T05:45:41.629Z,3.17
2019-06-01T05:47:43.660Z,2.65
2019-06-01T05:49:46.051Z,2.98
2019-06-01T05:51:48.301Z,2.50
2019-06-01T05:53:50.942Z,3.00
2019-06-01T05:57:55.011Z,2.50
2019-06-01T05:59:57.135Z,2.55
2019-06-01T06:01:59.329Z,2.45
2019-06-01T06:04:01.390Z,2.30
2019-06-01T07:29:34.392Z,3.02
2019-06-01T07:31:36.647Z,3.58
2019-06-01T07:33:38.693Z,3.22
2019-06-01T07:35:40.908Z,3.17
2019-06-01T07:37:42.996Z,3.30
2019-06-01T07:39:45.025Z,2.80
2019-06-01T07:41:47.243Z,3.20
2019-06-01T07:46:47.126Z,2.87
2019-06-01T07:48:49.381Z,3.02
2019-06-01T07:50:51.393Z,3.42
2019-06-01T07:52:53.616Z,3.00
2019-06-01T07:54:55.688Z,3.00
2019-06-01T07:56:57.810Z,3.17
2019-06-01T07:59:01.231Z,3.40
2019-06-01T08:01:03.536Z,3.10
2019-06-01T08:03:05.578Z,3.15
2019-06-01T08:05:09.077Z,3.22
2019-06-01T08:07:11.088Z,3.27
2019-06-01T08:09:13.109Z,2.87
2019-06-01T08:11:15.190Z,3.25
2019-06-01T08:13:17.166Z,2.95
2019-06-01T08:15:19.303Z,2.98
2019-06-01T08:17:22.015Z,2.70
2019-06-01T08:19:24.256Z,3.20
2019-06-01T08:21:26.342Z,3.30
2019-06-01T08:23:28.604Z,3.60
2019-06-01T08:25:30.861Z,3.17
2019-06-01T08:27:33.209Z,2.92
2019-06-01T08:29:35.453Z,4.12
2019-06-01T08:31:37.574Z,3.10
2019-06-01T08:33:40.089Z,3.37
2019-06-01T08:35:42.247Z,3.30
2019-06-01T08:37:44.286Z,3.00
2019-06-01T08:39:46.403Z,3.10
2019-06-01T08:41:48.985Z,3.30
2019-06-01T08:43:50.985Z,4.40
2019-06-01T08:45:53.381Z,3.70
2019-06-01T08:47:55.847Z,3.70
2019-06-01T08:51:59.829Z,3.10
2019-06-01T08:54:01.894Z,3.27
2019-06-01T08:56:04.005Z,3.20
2019-06-01T08:58:06.097Z,3.50
2019-06-01T09:00:08.577Z,3.30
2019-06-01T09:04:12.409Z,3.15
2019-06-01T09:06:14.924Z,3.52
2019-06-01T09:10:18.657Z,3.30
2019-06-01T09:12:20.902Z,3.75
2019-06-01T09:14:22.960Z,3.85
2019-06-01T09:16:25.538Z,3.83
2019-06-01T09:18:27.958Z,4.08
2019-06-01T09:20:34.918Z,3.58
2019-06-01T09:22:35.816Z,4.08
2019-06-01T09:24:38.199Z,4.03
2019-06-01T09:26:40.427Z,3.92
2019-06-01T09:28:42.628Z,3.98
2019-06-01T09:30:44.720Z,4.05
2019-06-01T09:32:47.883Z,3.92
2019-06-01T09:34:49.905Z,3.95
2019-06-01T09:36:55.421Z,3.92
2019-06-01T09:38:56.086Z,4.00
2019-06-01T09:40:58.135Z,3.90
2019-06-01T09:43:00.516Z,4.03
2019-06-01T09:47:04.700Z,3.80
2019-06-01T09:49:08.556Z,4.20
2019-06-01T09:51:10.560Z,3.80
2019-06-01T09:53:13.137Z,4.15
2019-06-01T09:55:15.559Z,4.85
2019-06-01T09:59:20.568Z,3.45
2019-06-01T10:01:22.981Z,4.03
2019-06-01T10:05:28.337Z,3.87
2019-06-01T10:07:30.967Z,4.45
2019-06-01T10:09:33.627Z,4.55
2019-06-01T10:11:36.067Z,4.55
2019-06-01T10:15:40.624Z,3.90
2019-06-01T10:17:43.164Z,4.30
2019-06-01T10:21:47.394Z,4.27
2019-06-01T10:23:50.046Z,3.85
2019-06-01T10:25:52.562Z,4.25
2019-06-01T10:27:54.633Z,4.30
2019-06-01T10:29:56.695Z,5.10
2019-06-01T10:31:59.035Z,3.98
2019-06-01T10:36:19.031Z,4.05
2019-06-01T10:38:07.069Z,4.25
2019-06-01T10:40:09.419Z,4.03
2019-06-01T10:44:13.555Z,4.35
2019-06-01T10:46:15.636Z,4.22
2019-06-01T10:48:17.694Z,4.55
2019-06-01T10:50:20.056Z,4.37
2019-06-01T10:54:23.719Z,4.30
2019-06-01T10:56:27.870Z,4.78
2019-06-01T10:58:29.917Z,4.22
2019-06-01T11:00:39.818Z,4.60
2019-06-01T11:02:36.665Z,4.65
2019-06-01T11:04:38.991Z,4.65
2019-06-01T11:06:47.799Z,4.10
2019-06-01T11:08:45.583Z,4.53
2019-06-01T11:10:48.160Z,4.47
2019-06-01T11:12:50.263Z,4.45
2019-06-01T11:14:52.579Z,4.47
2019-06-01T11:18:58.498Z,4.83
2019-06-01T11:21:00.716Z,4.75
2019-06-01T11:23:03.142Z,4.60
2019-06-01T11:25:05.569Z,5.08
2019-06-01T11:27:08.756Z,5.08
2019-06-01T11:29:10.956Z,5.12
2019-06-01T11:31:13.268Z,5.15
2019-06-01T11:35:17.581Z,4.87
2019-06-01T11:37:19.804Z,4.97
2019-06-01T11:39:22.129Z,4.83
2019-06-01T11:41:24.336Z,5.12
2019-06-01T11:43:26.571Z,4.45
2019-06-01T11:45:28.837Z,4.42
2019-06-01T11:49:34.696Z,4.85
2019-06-01T11:51:37.273Z,4.40
2019-06-01T11:55:43.383Z,4.53
2019-06-01T11:57:46.057Z,5.47
2019-06-01T11:59:48.227Z,4.72
2019-06-01T12:01:50.664Z,4.53
2019-06-01T12:03:52.804Z,5.47
2019-06-01T12:05:54.809Z,4.83
2019-06-01T12:07:57.190Z,4.58
2019-06-01T12:09:59.414Z,4.87
2019-06-01T12:12:01.446Z,5.10
2019-06-01T12:14:03.750Z,4.58
2019-06-01T12:16:05.890Z,5.90
2019-06-01T12:18:07.980Z,4.95
2019-06-01T12:20:10.281Z,4.42
2019-06-01T12:22:13.528Z,4.50
2019-06-01T12:24:15.574Z,4.70
2019-06-01T12:26:17.772Z,5.62
2019-06-01T12:37:36.027Z,5.37
2019-06-01T12:39:24.404Z,5.05
2019-06-01T12:41:26.578Z,4.78
2019-06-01T12:43:28.723Z,4.78
2019-06-01T12:45:31.029Z,5.22
2019-06-01T12:47:33.162Z,5.00
2019-06-01T12:49:35.219Z,4.92
2019-06-01T12:51:37.567Z,5.62
2019-06-01T12:53:42.398Z,5.15
2019-06-01T12:55:45.241Z,4.90
2019-06-01T12:57:49.116Z,5.05
2019-06-01T12:59:51.529Z,4.90
2019-06-01T13:01:53.779Z,5.15
2019-06-01T13:03:57.026Z,4.87
2019-06-01T13:05:59.130Z,5.22
2019-06-01T13:08:03.000Z,4.97
2019-06-01T13:10:05.359Z,4.62
2019-06-01T13:12:07.790Z,4.55
2019-06-01T13:16:11.761Z,5.03
2019-06-01T13:18:13.850Z,4.87
2019-06-01T13:20:15.881Z,5.47
2019-06-01T13:22:18.194Z,5.05
2019-06-01T13:24:20.162Z,4.33
2019-06-01T13:26:22.263Z,5.28
2019-06-01T13:28:37.711Z,4.70
2019-06-01T13:30:28.829Z,4.75
2019-06-01T13:32:30.944Z,4.20
2019-06-01T13:34:34.399Z,4.40
2019-06-01T13:36:36.585Z,4.60
2019-06-01T13:38:38.961Z,4.40
2019-06-01T13:42:45.199Z,4.85
2019-06-01T13:44:47.446Z,5.75
2019-06-01T13:46:49.749Z,5.37
2019-06-01T13:48:52.748Z,5.08
2019-06-01T13:50:57.080Z,5.15
2019-06-01T13:55:01.322Z,5.10
2019-06-01T13:57:03.550Z,5.15
2019-06-01T13:59:05.808Z,5.25
2019-06-01T14:01:07.817Z,5.78
2019-06-01T14:03:10.000Z,6.08
2019-06-01T14:05:12.301Z,6.42
2019-06-01T14:07:14.381Z,6.17
2019-06-01T14:09:21.528Z,5.22
2019-06-01T14:11:21.796Z,5.08
2019-06-01T14:13:23.896Z,6.37
2019-06-01T14:15:25.992Z,6.12
2019-06-01T14:17:28.467Z,6.35
2019-06-01T14:21:33.499Z,5.55
2019-06-01T14:23:35.769Z,5.55
2019-06-01T14:25:37.849Z,5.03
2019-06-01T14:27:40.074Z,5.40
2019-06-01T14:29:42.098Z,4.83
2019-06-01T14:31:46.116Z,5.55
2019-06-01T14:33:48.644Z,5.10
2019-06-01T14:35:52.738Z,5.12
2019-06-01T14:37:55.237Z,5.12
2019-06-01T14:39:57.543Z,5.17
2019-06-01T14:41:59.689Z,4.62
2019-06-01T14:44:01.797Z,4.97
2019-06-01T14:46:03.873Z,4.55
2019-06-01T14:48:06.297Z,4.80
2019-06-01T14:52:10.513Z,4.83
2019-06-01T14:54:12.761Z,4.80
2019-06-01T14:56:15.313Z,5.65
2019-06-01T14:58:17.617Z,4.25
2019-06-01T15:00:20.677Z,4.33
2019-06-01T15:02:22.944Z,4.78
2019-06-01T15:04:25.441Z,5.12
2019-06-01T15:08:29.643Z,5.30
2019-06-01T15:10:32.011Z,6.00
2019-06-01T15:14:35.711Z,5.28
2019-06-01T15:16:37.802Z,4.87
2019-06-01T15:18:40.277Z,4.90
2019-06-01T15:20:42.590Z,5.30
2019-06-01T15:22:44.970Z,5.47
2019-06-01T15:26:50.443Z,6.17
2019-06-01T15:28:53.126Z,6.12
2019-06-01T15:30:57.029Z,5.53
2019-06-01T15:32:59.385Z,5.37
2019-06-01T15:35:03.318Z,5.30
2019-06-01T15:37:05.790Z,6.00
2019-06-01T15:39:23.542Z,5.15
2019-06-01T15:41:12.282Z,5.53
2019-06-01T15:43:14.353Z,5.30
2019-06-01T15:45:17.043Z,6.00
2019-06-01T15:47:19.092Z,5.92
2019-06-01T15:49:21.551Z,5.58
2019-06-01T15:53:25.168Z,4.40
2019-06-01T15:55:27.205Z,4.30
2019-06-01T15:57:29.266Z,4.17
2019-06-01T15:59:31.355Z,4.72
2019-06-01T16:01:33.498Z,4.83
2019-06-01T16:03:35.730Z,4.50
2019-06-01T16:05:37.786Z,4.35
2019-06-01T16:07:40.078Z,4.90
2019-06-01T16:09:43.436Z,4.75
2019-06-01T16:11:45.697Z,5.03
2019-06-01T16:13:47.929Z,5.40
2019-06-01T16:15:50.234Z,4.87
2019-06-01T16:17:53.690Z,4.78
2019-06-01T16:19:55.965Z,5.05
2019-06-01T16:22:00.243Z,4.92
2019-06-01T16:24:02.466Z,4.60
2019-06-01T16:26:15.477Z,6.17
2019-06-01T16:28:08.553Z,6.05
2019-06-01T16:30:11.410Z,6.62
2019-06-01T16:32:13.733Z,7.60
2019-06-01T16:34:15.860Z,6.30
2019-06-01T16:36:17.892Z,6.03
2019-06-01T16:38:20.240Z,5.67
2019-06-01T16:40:22.369Z,5.60
2019-06-01T16:42:24.403Z,4.70
2019-06-01T16:44:26.736Z,3.98
2019-06-01T16:46:28.866Z,4.65
2019-06-01T16:48:30.925Z,5.58
2019-06-01T16:50:33.420Z,4.78
2019-06-01T16:52:35.567Z,4.70
2019-06-01T16:54:37.619Z,4.92
2019-06-01T16:56:40.033Z,4.12
2019-06-01T17:00:44.326Z,4.37
2019-06-01T17:02:46.624Z,4.42
2019-06-01T17:04:48.670Z,4.00
2019-06-01T17:06:50.739Z,4.28
2019-06-01T17:08:53.122Z,4.55
2019-06-01T17:10:56.605Z,5.03
2019-06-01T17:13:00.251Z,5.05
2019-06-01T17:15:03.366Z,4.62
2019-06-01T17:17:07.457Z,4.53
2019-06-01T17:19:09.721Z,4.50
2019-06-01T17:21:11.935Z,4.55
2019-06-01T17:25:18.095Z,4.33
2019-06-01T17:27:20.593Z,4.95
2019-06-01T17:29:23.230Z,4.90
2019-06-01T17:33:27.385Z,3.75
2019-06-01T17:35:29.476Z,4.03
2019-06-01T17:37:32.194Z,4.58
2019-06-01T17:39:34.694Z,4.03
2019-06-01T17:41:36.780Z,4.40
2019-06-01T17:43:38.869Z,4.60
2019-06-01T17:45:41.600Z,5.20
2019-06-01T17:47:43.600Z,4.58
2019-06-01T17:49:45.654Z,4.45
2019-06-01T17:51:47.899Z,5.17
2019-06-01T17:53:53.138Z,4.53
2019-06-01T17:55:54.174Z,4.83
2019-06-01T17:57:56.720Z,5.03
2019-06-01T18:02:01.783Z,3.77
2019-06-01T18:04:05.920Z,4.22
2019-06-01T18:06:09.932Z,4.33
2019-06-01T18:08:13.640Z,3.83
2019-06-01T18:10:16.172Z,4.03
2019-06-01T18:12:18.279Z,4.30
2019-06-01T18:14:20.600Z,3.55
2019-06-01T18:18:24.798Z,3.45
2019-06-01T18:20:27.032Z,3.80
2019-06-01T18:22:29.574Z,3.40
2019-06-01T18:24:31.712Z,3.50
2019-06-01T18:26:33.797Z,3.70
2019-06-01T18:28:36.160Z,3.50
2019-06-01T18:30:38.555Z,3.40
2019-06-01T18:32:40.995Z,3.83
2019-06-01T18:34:43.045Z,3.40
2019-06-01T18:36:45.256Z,3.40
2019-06-01T18:38:47.670Z,3.67
2019-06-01T18:40:49.790Z,3.55
2019-06-01T18:42:57.236Z,3.75
2019-06-01T18:45:01.037Z,4.42
2019-06-01T18:47:03.793Z,4.15
2019-06-01T18:49:06.205Z,4.30
2019-06-01T18:51:10.112Z,3.58
2019-06-01T18:53:14.165Z,3.67
2019-06-01T18:55:16.732Z,4.42
2019-06-01T18:59:23.835Z,4.20
2019-06-01T19:01:26.845Z,4.97
2019-06-01T19:03:29.035Z,4.40
2019-06-01T19:05:31.518Z,4.42
2019-06-01T19:09:36.597Z,5.00
2019-06-01T19:11:40.512Z,4.97
2019-06-01T19:13:44.690Z,5.53
2019-06-01T19:15:46.914Z,6.08
2019-06-01T19:17:49.210Z,6.97
2019-06-01T19:19:51.447Z,5.67
2019-06-01T19:21:54.326Z,6.10
2019-06-01T19:23:56.809Z,5.37
2019-06-01T19:25:58.966Z,6.20
2019-06-01T19:28:01.022Z,4.95
2019-06-01T19:30:04.999Z,6.70
2019-06-01T19:32:08.699Z,7.40
2019-06-01T19:34:11.521Z,7.00
2019-06-01T19:36:13.704Z,7.90
2019-06-01T19:40:27.435Z,6.60
2019-06-01T19:42:29.960Z,7.22
2019-06-01T19:44:32.374Z,6.67
2019-06-01T19:48:38.289Z,6.55
2019-06-01T19:50:41.606Z,7.35
2019-06-01T19:52:43.762Z,6.70
2019-06-01T19:54:45.981Z,7.42
2019-06-01T19:56:48.425Z,7.45
2019-06-01T20:00:52.401Z,8.35
2019-06-01T20:02:54.479Z,7.97
2019-06-01T20:04:56.529Z,7.35
2019-06-01T20:06:59.525Z,8.23
2019-06-01T20:09:01.571Z,9.53
2019-06-01T20:11:05.575Z,9.03
2019-06-01T20:13:08.333Z,8.30
2019-06-01T20:15:11.474Z,9.58
2019-06-01T20:17:17.832Z,8.60
2019-06-01T20:19:20.261Z,8.68
2019-06-01T20:21:23.926Z,8.65
2019-06-01T20:23:26.582Z,9.85
2019-06-01T20:25:30.742Z,9.15
2019-06-01T20:27:34.960Z,9.13
2019-06-01T20:29:38.008Z,8.68
2019-06-01T20:31:40.182Z,8.88
2019-06-01T20:33:42.804Z,9.48
2019-06-01T20:37:46.752Z,8.95
2019-06-01T20:39:48.824Z,9.68
2019-06-01T20:41:51.406Z,8.60
2019-06-01T20:45:57.252Z,9.68
2019-06-01T20:48:00.943Z,9.43
2019-06-01T20:52:06.716Z,10.15
2019-06-01T20:54:09.788Z,9.08
2019-06-01T20:56:13.329Z,10.63
2019-06-01T20:58:16.235Z,9.90
2019-06-01T21:00:21.739Z,10.80
2019-06-01T21:02:25.035Z,11.43
2019-06-01T21:04:27.307Z,11.03
2019-06-01T21:06:29.802Z,11.68
2019-06-01T21:10:34.212Z,9.83
2019-06-01T21:12:44.877Z,10.15
2019-06-01T21:14:41.190Z,10.55
2019-06-01T21:16:43.673Z,10.58
2019-06-01T21:20:48.432Z,12.30
2019-06-01T21:22:50.868Z,12.68
2019-06-01T21:24:54.110Z,12.50
2019-06-01T21:26:56.565Z,15.15
2019-06-01T21:31:00.708Z,13.58
2019-06-01T21:33:03.979Z,11.38
2019-06-01T21:35:06.581Z,10.08
2019-06-01T21:37:09.092Z,11.90
2019-06-01T21:39:11.499Z,12.28
2019-06-01T21:44:31.710Z,12.45
2019-06-01T21:46:33.861Z,10.03
2019-06-01T21:48:36.014Z,11.70
2019-06-01T21:50:38.898Z,11.15
2019-06-01T21:52:41.095Z,11.60
2019-06-01T21:54:43.409Z,12.00
2019-06-01T21:56:46.199Z,11.33
2019-06-01T21:58:48.607Z,12.60
2019-06-01T22:02:54.860Z,11.90
2019-06-01T22:04:57.091Z,11.03
2019-06-01T22:06:59.797Z,11.05
2019-06-01T22:11:05.983Z,10.20
2019-06-01T22:15:12.089Z,10.48
2019-06-01T22:17:14.116Z,10.05
2019-06-01T22:19:17.465Z,10.20
2019-06-01T22:21:20.084Z,10.45
2019-06-01T22:25:24.079Z,9.55
2019-06-01T22:27:26.478Z,10.82
2019-06-01T22:31:30.881Z,11.43
2019-06-01T22:33:33.451Z,11.38
2019-06-01T22:35:35.612Z,10.93
2019-06-01T22:37:37.673Z,11.53
2019-06-01T22:39:40.076Z,12.53
2019-06-01T22:41:42.496Z,12.15
2019-06-01T22:43:47.121Z,12.18
2019-06-01T22:45:49.678Z,11.78
2019-06-01T22:49:53.635Z,13.10
2019-06-01T22:51:56.043Z,12.58
2019-06-01T22:53:58.098Z,12.93
2019-06-01T22:56:00.172Z,12.85
2019-06-01T22:58:02.268Z,12.15
2019-06-01T23:00:04.892Z,12.75
2019-06-01T23:02:07.218Z,13.15
2019-06-01T23:04:09.290Z,13.72
2019-06-01T23:06:11.594Z,12.50
2019-06-01T23:10:16.023Z,13.03
2019-06-01T23:14:21.260Z,12.18
2019-06-01T23:16:23.743Z,12.93
2019-06-01T23:18:25.879Z,12.98
2019-06-01T23:20:28.013Z,13.32
2019-06-01T23:22:30.552Z,13.50
2019-06-01T23:24:32.632Z,13.58
2019-06-01T23:26:34.706Z,13.25
2019-06-01T23:28:38.777Z,14.43
2019-06-01T23:30:41.686Z,14.00
2019-06-01T23:32:43.752Z,14.18
2019-06-01T23:34:46.309Z,14.00
2019-06-01T23:36:49.355Z,14.25
2019-06-01T23:38:51.416Z,13.88
2019-06-01T23:40:53.806Z,14.98
2019-06-01T23:44:57.495Z,13.45
2019-06-01T23:46:59.705Z,13.95
2019-06-01T23:49:01.757Z,13.78
2019-06-01T23:51:03.780Z,13.40
2019-06-01T23:53:13.791Z,13.65
2019-06-01T23:55:10.167Z,13.62
2019-06-01T23:57:12.809Z,14.25
2019-06-01T23:59:14.852Z,13.40
